createdAt,value
2022-08-29T00:01:23.008Z,18.90
2022-08-29T00:03:50.351Z,18.90
2022-08-29T00:06:17.388Z,18.90
2022-08-29T00:08:44.393Z,18.90
2022-08-29T00:11:11.392Z,18.80
2022-08-29T00:13:38.576Z,18.80
2022-08-29T00:16:06.420Z,18.80
2022-08-29T00:18:33.701Z,18.80
2022-08-29T00:21:01.080Z,18.80
2022-08-29T00:23:28.327Z,18.80
2022-08-29T00:25:56.161Z,18.80
2022-08-29T00:28:23.658Z,18.70
2022-08-29T00:30:51.293Z,18.70
2022-08-29T00:33:18.983Z,18.70
2022-08-29T00:35:47.392Z,18.70
2022-08-29T00:38:18.235Z,18.70
2022-08-29T00:40:54.726Z,18.70
2022-08-29T00:43:30.099Z,18.70
2022-08-29T00:46:46.563Z,18.70
2022-08-29T00:49:39.741Z,18.70
2022-08-29T00:52:17.137Z,18.90
2022-08-29T00:54:49.034Z,18.60
2022-08-29T00:57:18.794Z,18.60
2022-08-29T00:59:47.327Z,18.60
2022-08-29T01:02:14.338Z,18.60
2022-08-29T01:04:42.132Z,18.50
2022-08-29T01:07:10.182Z,18.50
2022-08-29T01:09:39.493Z,18.50
2022-08-29T01:12:16.785Z,18.50
2022-08-29T01:14:52.556Z,18.50
2022-08-29T01:17:39.776Z,18.50
2022-08-29T01:20:20.501Z,18.40
2022-08-29T01:23:12.789Z,18.40
2022-08-29T01:25:46.503Z,18.40
2022-08-29T01:28:22.831Z,18.40
2022-08-29T01:31:14.191Z,18.40
2022-08-29T01:33:59.844Z,18.40
2022-08-29T01:36:38.942Z,18.30
2022-08-29T01:39:07.338Z,18.30
2022-08-29T01:41:35.272Z,18.30
2022-08-29T01:44:13.943Z,18.30
2022-08-29T01:46:41.030Z,18.20
2022-08-29T01:49:11.291Z,18.20
2022-08-29T01:51:39.357Z,18.20
2022-08-29T01:54:08.384Z,18.20
2022-08-29T01:56:43.341Z,18.20
2022-08-29T01:59:14.634Z,18.20
2022-08-29T02:01:48.376Z,18.20
2022-08-29T02:04:15.667Z,18.10
2022-08-29T02:06:42.952Z,18.10
2022-08-29T02:09:11.359Z,18.10
2022-08-29T02:11:40.084Z,18.10
2022-08-29T02:14:08.181Z,18.10
2022-08-29T02:16:44.103Z,18.00
2022-08-29T02:19:11.268Z,18.00
2022-08-29T02:21:38.592Z,18.00
2022-08-29T02:24:24.036Z,17.90
2022-08-29T02:26:53.934Z,18.10
2022-08-29T02:29:20.784Z,17.90
2022-08-29T02:31:47.840Z,17.90
2022-08-29T02:34:15.249Z,17.80
2022-08-29T02:36:42.964Z,17.80
2022-08-29T02:39:12.035Z,17.80
2022-08-29T02:41:39.486Z,17.70
2022-08-29T02:44:09.328Z,17.70
2022-08-29T02:46:37.581Z,17.70
2022-08-29T02:49:04.803Z,17.60
2022-08-29T02:51:33.803Z,17.60
2022-08-29T02:54:01.620Z,17.60
2022-08-29T02:56:30.026Z,17.60
2022-08-29T02:58:58.020Z,17.50
2022-08-29T03:01:26.143Z,17.50
2022-08-29T03:03:53.967Z,17.40
2022-08-29T03:06:21.722Z,17.40
2022-08-29T03:08:50.534Z,17.40
2022-08-29T03:11:18.412Z,17.40
2022-08-29T03:13:46.874Z,17.30
2022-08-29T03:16:14.779Z,17.30
2022-08-29T03:18:42.172Z,17.30
2022-08-29T03:21:21.936Z,17.30
2022-08-29T03:23:51.053Z,17.30
2022-08-29T03:26:19.171Z,17.30
2022-08-29T03:28:46.172Z,17.30
2022-08-29T03:31:13.240Z,17.30
2022-08-29T03:33:41.713Z,17.30
2022-08-29T03:36:13.894Z,17.20
2022-08-29T03:38:43.982Z,17.20
2022-08-29T03:41:11.212Z,17.20
2022-08-29T03:43:38.141Z,17.20
2022-08-29T03:46:05.401Z,17.20
2022-08-29T03:48:33.625Z,17.20
2022-08-29T03:51:00.781Z,17.20
2022-08-29T03:53:27.897Z,17.20
2022-08-29T03:55:55.154Z,17.20
2022-08-29T03:58:22.018Z,17.10
2022-08-29T04:00:49.237Z,17.10
2022-08-29T04:03:16.731Z,17.10
2022-08-29T04:05:43.959Z,17.10
2022-08-29T04:08:11.064Z,17.10
2022-08-29T04:10:39.028Z,17.00
2022-08-29T04:13:08.221Z,17.00
2022-08-29T04:15:37.321Z,17.00
2022-08-29T04:18:07.208Z,17.00
2022-08-29T04:20:38.356Z,17.00
2022-08-29T04:23:06.391Z,17.00
2022-08-29T04:25:37.388Z,17.00
2022-08-29T04:28:09.302Z,17.00
2022-08-29T04:30:38.417Z,17.00
2022-08-29T04:33:05.851Z,17.00
2022-08-29T04:35:33.078Z,16.90
2022-08-29T04:37:59.992Z,16.90
2022-08-29T04:40:27.081Z,16.90
2022-08-29T04:42:54.132Z,17.00
2022-08-29T04:45:23.124Z,16.90
2022-08-29T04:47:50.293Z,16.90
2022-08-29T04:50:22.312Z,17.00
2022-08-29T04:52:50.700Z,17.00
2022-08-29T04:55:22.611Z,17.10
2022-08-29T04:57:54.132Z,17.20
2022-08-29T05:00:27.114Z,17.30
2022-08-29T05:02:54.345Z,17.30
2022-08-29T05:05:21.800Z,17.40
2022-08-29T05:07:48.843Z,17.50
2022-08-29T05:10:19.402Z,17.60
2022-08-29T05:12:46.943Z,17.60
2022-08-29T05:15:15.510Z,17.70
2022-08-29T05:17:43.000Z,17.80
2022-08-29T05:20:10.728Z,17.80
2022-08-29T05:22:39.331Z,17.90
2022-08-29T05:25:07.090Z,17.90
2022-08-29T05:27:34.349Z,17.90
2022-08-29T05:30:04.104Z,18.00
2022-08-29T05:32:31.130Z,18.00
2022-08-29T05:34:58.837Z,18.30
2022-08-29T05:37:26.498Z,18.10
2022-08-29T05:39:54.181Z,18.10
2022-08-29T05:42:22.708Z,18.20
2022-08-29T05:44:50.095Z,18.30
2022-08-29T05:47:19.154Z,18.30
2022-08-29T05:49:48.932Z,18.40
2022-08-29T05:52:19.380Z,18.50
2022-08-29T05:54:46.750Z,18.60
2022-08-29T05:57:19.325Z,18.70
2022-08-29T05:59:49.539Z,18.80
2022-08-29T06:02:17.956Z,18.90
2022-08-29T06:04:46.041Z,18.80
2022-08-29T06:07:14.387Z,19.00
2022-08-29T06:09:43.258Z,19.10
2022-08-29T06:12:13.545Z,19.20
2022-08-29T06:14:41.481Z,19.40
2022-08-29T06:17:17.914Z,19.40
2022-08-29T06:19:45.422Z,19.40
2022-08-29T06:22:13.011Z,19.50
2022-08-29T06:24:44.463Z,19.60
2022-08-29T06:27:13.035Z,19.70
2022-08-29T06:29:43.627Z,19.70
2022-08-29T06:32:12.907Z,19.80
2022-08-29T06:34:40.302Z,19.80
2022-08-29T06:37:07.494Z,19.90
2022-08-29T06:39:34.772Z,20.00
2022-08-29T06:42:02.343Z,20.00
2022-08-29T06:44:31.644Z,20.10
2022-08-29T06:46:59.487Z,20.10
2022-08-29T06:49:27.878Z,20.20
2022-08-29T06:51:58.101Z,20.30
2022-08-29T06:54:28.921Z,20.30
2022-08-29T06:56:57.799Z,20.30
2022-08-29T06:59:25.894Z,20.30
2022-08-29T07:01:55.154Z,20.40
2022-08-29T07:04:22.398Z,20.50
2022-08-29T07:06:50.177Z,20.50
2022-08-29T07:09:17.231Z,20.50
2022-08-29T07:11:44.412Z,20.60
2022-08-29T07:14:12.808Z,20.60
2022-08-29T07:16:41.206Z,20.70
2022-08-29T07:19:10.379Z,20.60
2022-08-29T07:21:38.756Z,20.80
2022-08-29T07:24:07.325Z,20.90
2022-08-29T07:26:41.406Z,20.90
2022-08-29T07:29:15.540Z,21.00
2022-08-29T07:31:42.980Z,21.10
2022-08-29T07:34:10.637Z,21.20
2022-08-29T07:36:38.709Z,21.30
2022-08-29T07:39:11.901Z,21.50
2022-08-29T07:41:41.412Z,21.30
2022-08-29T07:44:09.459Z,21.40
2022-08-29T07:46:37.150Z,21.40
2022-08-29T07:49:04.669Z,21.40
2022-08-29T07:51:31.847Z,21.70
2022-08-29T07:53:59.088Z,21.50
2022-08-29T07:56:40.103Z,21.50
2022-08-29T07:59:07.851Z,21.50
2022-08-29T08:01:35.628Z,21.40
2022-08-29T08:04:03.469Z,21.50
2022-08-29T08:06:30.709Z,21.50
2022-08-29T08:08:57.784Z,21.50
2022-08-29T08:11:26.126Z,21.50
2022-08-29T08:13:54.943Z,21.60
2022-08-29T08:16:26.389Z,21.70
2022-08-29T08:18:55.255Z,21.60
2022-08-29T08:21:24.219Z,21.70
2022-08-29T08:23:52.317Z,21.70
2022-08-29T08:26:20.462Z,21.90
2022-08-29T08:28:48.203Z,21.70
2022-08-29T08:31:17.238Z,21.80
2022-08-29T08:33:46.171Z,21.90
2022-08-29T08:36:25.368Z,22.10
2022-08-29T08:38:54.006Z,22.10
2022-08-29T08:41:43.442Z,22.10
2022-08-29T08:44:35.068Z,22.20
2022-08-29T08:47:08.245Z,22.30
2022-08-29T08:49:55.295Z,22.30
2022-08-29T08:53:02.785Z,22.40
2022-08-29T08:55:46.155Z,22.40
2022-08-29T08:58:56.188Z,22.40
2022-08-29T09:01:34.440Z,22.50
2022-08-29T09:04:54.288Z,22.50
2022-08-29T09:07:48.419Z,22.50
2022-08-29T09:10:24.372Z,22.60
2022-08-29T09:14:04.148Z,22.60
2022-08-29T09:16:46.402Z,22.70
2022-08-29T09:19:17.222Z,22.70
2022-08-29T09:21:51.993Z,22.90
2022-08-29T09:24:50.333Z,22.90
2022-08-29T09:27:19.901Z,23.00
2022-08-29T09:29:49.553Z,23.20
2022-08-29T09:32:21.741Z,23.30
2022-08-29T09:35:08.079Z,23.40
2022-08-29T09:37:37.073Z,23.50
2022-08-29T09:40:11.311Z,23.60
2022-08-29T09:42:43.641Z,23.70
2022-08-29T09:45:25.111Z,23.60
2022-08-29T09:48:18.165Z,23.80
2022-08-29T09:50:45.990Z,24.00
2022-08-29T09:53:24.221Z,24.00
2022-08-29T09:55:53.311Z,23.90
2022-08-29T09:58:20.403Z,24.10
2022-08-29T10:01:17.766Z,24.10
2022-08-29T10:04:02.248Z,24.10
2022-08-29T10:06:44.234Z,24.20
2022-08-29T10:09:27.772Z,24.30
2022-08-29T10:12:12.723Z,24.30
2022-08-29T10:14:50.396Z,24.30
2022-08-29T10:17:55.864Z,24.40
2022-08-29T10:20:36.003Z,24.40
2022-08-29T10:23:17.578Z,24.50
2022-08-29T10:25:44.757Z,24.70
2022-08-29T10:28:52.562Z,24.80
2022-08-29T10:31:50.589Z,25.00
2022-08-29T10:34:45.899Z,25.20
2022-08-29T10:37:36.579Z,25.30
2022-08-29T10:40:16.785Z,25.40
2022-08-29T10:42:46.014Z,25.40
2022-08-29T10:45:39.200Z,25.40
2022-08-29T10:48:22.743Z,25.40
2022-08-29T10:51:26.179Z,25.40
2022-08-29T10:54:05.208Z,25.40
2022-08-29T10:56:40.798Z,25.40
2022-08-29T10:59:31.650Z,25.40
2022-08-29T11:02:29.514Z,25.60
2022-08-29T11:05:03.899Z,25.70
2022-08-29T11:07:37.056Z,25.80
2022-08-29T11:10:27.930Z,25.90
2022-08-29T11:13:28.890Z,26.00
2022-08-29T11:16:17.726Z,26.10
2022-08-29T11:18:50.041Z,26.20
2022-08-29T11:21:38.405Z,26.40
2022-08-29T11:24:07.381Z,26.60
2022-08-29T11:26:43.470Z,26.90
2022-08-29T11:29:42.010Z,27.00
2022-08-29T11:32:36.131Z,27.30
2022-08-29T11:35:31.249Z,27.70
2022-08-29T11:38:45.106Z,28.30
2022-08-29T11:41:29.168Z,29.10
2022-08-29T11:44:42.389Z,29.90
2022-08-29T11:47:46.755Z,30.60
2022-08-29T11:50:17.073Z,31.30
2022-08-29T11:53:24.381Z,31.90
2022-08-29T11:56:12.355Z,32.80
2022-08-29T11:58:43.029Z,33.60
2022-08-29T12:01:35.971Z,34.20
2022-08-29T12:04:08.308Z,34.70
2022-08-29T12:07:01.591Z,35.00
2022-08-29T12:09:35.154Z,35.10
2022-08-29T12:12:05.239Z,35.20
2022-08-29T12:14:52.699Z,35.30
2022-08-29T12:17:23.351Z,35.40
2022-08-29T12:19:56.465Z,35.40
2022-08-29T12:22:47.046Z,35.40
2022-08-29T12:25:55.252Z,35.10
2022-08-29T12:28:48.074Z,34.90
2022-08-29T12:32:18.756Z,34.50
2022-08-29T12:35:16.135Z,34.20
2022-08-29T12:38:31.453Z,33.80
2022-08-29T12:41:04.559Z,33.30
2022-08-29T12:43:37.706Z,33.00
2022-08-29T12:46:48.036Z,32.60
2022-08-29T12:49:50.993Z,32.30
2022-08-29T12:52:29.160Z,32.00
2022-08-29T12:55:03.289Z,31.50
2022-08-29T12:57:36.837Z,31.20
2022-08-29T13:00:16.633Z,30.90
2022-08-29T13:03:03.799Z,30.60
2022-08-29T13:05:33.535Z,30.20
2022-08-29T13:08:09.620Z,30.00
2022-08-29T13:10:53.402Z,29.80
2022-08-29T13:13:23.464Z,29.70
2022-08-29T13:15:53.872Z,29.60
2022-08-29T13:18:21.839Z,29.60
2022-08-29T13:21:07.647Z,29.60
2022-08-29T13:23:47.863Z,29.70
2022-08-29T13:26:14.954Z,29.90
2022-08-29T13:28:44.675Z,30.10
2022-08-29T13:31:11.874Z,30.50
2022-08-29T13:34:04.327Z,30.80
2022-08-29T13:36:46.423Z,31.00
2022-08-29T13:39:19.175Z,31.20
2022-08-29T13:42:14.034Z,31.40
2022-08-29T13:44:53.352Z,31.60
2022-08-29T13:47:25.620Z,31.70
2022-08-29T13:50:02.019Z,31.70
2022-08-29T13:52:31.711Z,31.60
2022-08-29T13:54:59.987Z,31.40
2022-08-29T13:57:29.504Z,31.20
2022-08-29T14:00:01.049Z,31.10
2022-08-29T14:02:33.977Z,31.00
2022-08-29T14:05:01.175Z,31.00
2022-08-29T14:07:31.308Z,30.90
2022-08-29T14:09:58.874Z,30.80
2022-08-29T14:12:32.875Z,30.80
2022-08-29T14:15:04.123Z,30.90
2022-08-29T14:17:36.097Z,31.10
2022-08-29T14:20:07.440Z,31.30
2022-08-29T14:22:34.754Z,31.40
2022-08-29T14:25:02.875Z,31.50
2022-08-29T14:27:29.835Z,31.60
2022-08-29T14:29:57.007Z,31.70
2022-08-29T14:32:24.257Z,31.80
2022-08-29T14:34:54.364Z,31.90
2022-08-29T14:37:21.768Z,31.80
2022-08-29T14:39:49.908Z,31.90
2022-08-29T14:42:18.209Z,31.90
2022-08-29T14:44:45.994Z,31.90
2022-08-29T14:47:13.643Z,31.90
2022-08-29T14:49:41.314Z,32.00
2022-08-29T14:52:08.582Z,32.10
2022-08-29T14:54:36.021Z,32.10
2022-08-29T14:57:03.283Z,32.10
2022-08-29T14:59:30.231Z,32.30
2022-08-29T15:01:57.362Z,32.50
2022-08-29T15:04:36.736Z,32.70
2022-08-29T15:07:10.739Z,32.90
2022-08-29T15:09:39.206Z,33.10
2022-08-29T15:12:06.639Z,33.30
2022-08-29T15:14:34.473Z,33.40
2022-08-29T15:17:03.458Z,33.40
2022-08-29T15:20:31.856Z,33.40
2022-08-29T15:22:18.801Z,33.20
2022-08-29T15:24:45.757Z,33.10
2022-08-29T15:27:13.101Z,32.90
2022-08-29T15:29:40.807Z,32.90
2022-08-29T15:32:09.418Z,32.80
2022-08-29T15:34:36.568Z,32.70
2022-08-29T15:37:04.939Z,32.60
2022-08-29T15:39:32.778Z,32.60
2022-08-29T15:42:03.825Z,32.70
2022-08-29T15:44:30.869Z,32.80
2022-08-29T15:46:58.569Z,33.00
2022-08-29T15:49:27.186Z,33.10
2022-08-29T15:51:55.375Z,33.00
2022-08-29T15:54:24.373Z,33.00
2022-08-29T15:56:52.441Z,32.90
2022-08-29T15:59:31.017Z,32.70
2022-08-29T16:02:10.507Z,32.60
2022-08-29T16:04:39.404Z,32.40
2022-08-29T16:07:06.535Z,32.20
2022-08-29T16:09:33.648Z,32.00
2022-08-29T16:12:00.599Z,31.70
2022-08-29T16:14:58.194Z,31.50
2022-08-29T16:17:15.303Z,31.40
2022-08-29T16:19:42.727Z,31.30
2022-08-29T16:22:10.462Z,31.20
2022-08-29T16:24:38.303Z,31.10
2022-08-29T16:27:06.574Z,31.00
2022-08-29T16:29:34.043Z,30.80
2022-08-29T16:32:01.867Z,30.70
2022-08-29T16:34:29.343Z,30.70
2022-08-29T16:37:01.327Z,30.60
2022-08-29T16:39:29.193Z,30.50
2022-08-29T16:41:56.795Z,30.50
2022-08-29T16:44:24.568Z,30.40
2022-08-29T16:46:52.144Z,30.30
2022-08-29T16:49:19.846Z,30.20
2022-08-29T16:51:46.928Z,30.10
2022-08-29T16:54:15.220Z,30.00
2022-08-29T16:56:42.779Z,29.70
2022-08-29T16:59:12.403Z,29.50
2022-08-29T17:01:49.800Z,29.40
2022-08-29T17:04:24.454Z,29.20
2022-08-29T17:06:52.493Z,29.00
2022-08-29T17:09:22.218Z,28.80
2022-08-29T17:11:51.446Z,28.60
2022-08-29T17:14:20.442Z,28.50
2022-08-29T17:16:51.582Z,28.30
2022-08-29T17:19:20.690Z,28.20
2022-08-29T17:21:49.136Z,28.00
2022-08-29T17:24:16.579Z,27.80
2022-08-29T17:26:46.964Z,27.70
2022-08-29T17:29:15.150Z,27.50
2022-08-29T17:31:42.686Z,27.40
2022-08-29T17:34:10.636Z,27.20
2022-08-29T17:36:40.435Z,27.10
2022-08-29T17:39:08.001Z,26.90
2022-08-29T17:41:37.119Z,26.70
2022-08-29T17:44:07.145Z,26.70
2022-08-29T17:46:35.003Z,26.50
2022-08-29T17:49:07.487Z,26.40
2022-08-29T17:51:36.478Z,26.30
2022-08-29T17:54:08.261Z,26.10
2022-08-29T17:56:46.524Z,25.90
2022-08-29T17:59:18.613Z,25.80
2022-08-29T18:01:46.789Z,25.70
2022-08-29T18:04:14.270Z,25.30
2022-08-29T18:06:42.402Z,25.30
2022-08-29T18:09:09.878Z,25.20
2022-08-29T18:11:47.573Z,25.10
2022-08-29T18:14:14.701Z,25.00
2022-08-29T18:16:41.607Z,24.80
2022-08-29T18:19:09.688Z,24.80
2022-08-29T18:21:37.165Z,24.60
2022-08-29T18:24:04.181Z,24.50
2022-08-29T18:26:34.529Z,24.30
2022-08-29T18:29:01.808Z,24.30
2022-08-29T18:31:28.719Z,24.10
2022-08-29T18:34:00.561Z,24.00
2022-08-29T18:36:30.892Z,23.90
2022-08-29T18:38:59.601Z,23.80
2022-08-29T18:41:26.971Z,23.70
2022-08-29T18:43:54.318Z,23.60
2022-08-29T18:46:21.497Z,23.50
2022-08-29T18:48:48.622Z,23.40
2022-08-29T18:51:15.685Z,23.30
2022-08-29T18:53:42.645Z,23.10
2022-08-29T18:56:10.154Z,23.10
2022-08-29T18:58:37.915Z,23.20
2022-08-29T19:01:17.464Z,22.90
2022-08-29T19:03:55.805Z,22.80
2022-08-29T19:06:25.770Z,22.80
2022-08-29T19:08:54.682Z,22.60
2022-08-29T19:11:21.808Z,22.60
2022-08-29T19:13:52.406Z,22.40
2022-08-29T19:16:21.262Z,22.50
2022-08-29T19:18:48.737Z,22.30
2022-08-29T19:21:16.267Z,22.30
2022-08-29T19:23:52.549Z,22.20
2022-08-29T19:26:32.729Z,22.10
2022-08-29T19:29:04.855Z,22.10
2022-08-29T19:31:31.948Z,22.00
2022-08-29T19:33:59.560Z,21.90
2022-08-29T19:36:28.605Z,21.90
2022-08-29T19:38:55.601Z,21.80
2022-08-29T19:41:23.004Z,21.70
2022-08-29T19:43:52.600Z,21.60
2022-08-29T19:46:23.773Z,21.60
2022-08-29T19:48:52.285Z,21.50
2022-08-29T19:51:24.755Z,21.50
2022-08-29T19:53:56.560Z,21.40
2022-08-29T19:56:26.572Z,21.30
2022-08-29T19:58:54.165Z,21.30
2022-08-29T20:01:21.425Z,21.20
2022-08-29T20:03:48.622Z,21.20
2022-08-29T20:06:15.952Z,21.10
2022-08-29T20:08:46.714Z,21.10
2022-08-29T20:11:21.213Z,21.10
2022-08-29T20:13:51.498Z,21.00
2022-08-29T20:16:24.525Z,21.00
2022-08-29T20:18:52.517Z,20.90
2022-08-29T20:21:23.525Z,20.90
2022-08-29T20:23:57.829Z,20.90
2022-08-29T20:26:31.450Z,20.80
2022-08-29T20:29:01.050Z,20.80
2022-08-29T20:31:28.843Z,20.80
2022-08-29T20:33:56.113Z,20.80
2022-08-29T20:36:43.196Z,20.50
2022-08-29T20:39:13.477Z,20.70
2022-08-29T20:41:40.926Z,20.70
2022-08-29T20:44:09.923Z,20.70
2022-08-29T20:46:41.975Z,20.70
2022-08-29T20:49:10.506Z,20.60
2022-08-29T20:51:38.587Z,20.60
2022-08-29T20:54:06.478Z,20.60
2022-08-29T20:56:33.329Z,20.50
2022-08-29T20:59:00.218Z,20.50
2022-08-29T21:01:27.972Z,20.50
2022-08-29T21:04:14.127Z,20.40
2022-08-29T21:06:48.848Z,20.40
2022-08-29T21:09:16.160Z,20.40
2022-08-29T21:11:43.147Z,20.40
2022-08-29T21:14:10.298Z,20.40
2022-08-29T21:16:37.621Z,20.30
2022-08-29T21:19:09.889Z,20.30
2022-08-29T21:21:38.965Z,20.30
2022-08-29T21:24:07.911Z,20.30
2022-08-29T21:26:35.276Z,20.20
2022-08-29T21:29:04.621Z,20.20
2022-08-29T21:31:33.432Z,20.20
2022-08-29T21:34:05.127Z,20.10
2022-08-29T21:36:36.228Z,20.10
2022-08-29T21:39:06.068Z,20.10
2022-08-29T21:41:36.899Z,20.10
2022-08-29T21:44:04.160Z,20.10
2022-08-29T21:46:35.217Z,20.00
2022-08-29T21:49:06.777Z,19.80
2022-08-29T21:51:34.909Z,19.90
2022-08-29T21:54:02.759Z,20.20
2022-08-29T21:56:32.178Z,19.90
2022-08-29T21:59:01.194Z,19.90
2022-08-29T22:01:39.132Z,19.90
2022-08-29T22:04:10.418Z,19.90
2022-08-29T22:06:41.047Z,19.80
2022-08-29T22:09:12.522Z,19.80
2022-08-29T22:11:40.892Z,19.70
2022-08-29T22:14:09.819Z,19.70
2022-08-29T22:16:37.939Z,19.70
2022-08-29T22:19:17.293Z,19.70
2022-08-29T22:21:51.899Z,19.60
2022-08-29T22:24:19.159Z,19.60
2022-08-29T22:26:48.005Z,19.60
2022-08-29T22:29:19.991Z,19.60
2022-08-29T22:31:47.208Z,19.50
2022-08-29T22:34:17.546Z,19.50
2022-08-29T22:36:44.503Z,19.50
2022-08-29T22:39:11.752Z,19.50
2022-08-29T22:41:40.630Z,19.50
2022-08-29T22:46:58.632Z,19.40
2022-08-29T22:49:33.122Z,19.40
2022-08-29T22:52:01.311Z,19.40
2022-08-29T22:54:37.544Z,19.40
2022-08-29T22:57:07.873Z,19.40
2022-08-29T22:59:36.144Z,19.40
2022-08-29T23:02:04.618Z,19.40
2022-08-29T23:04:32.296Z,19.40
2022-08-29T23:06:59.916Z,19.50
2022-08-29T23:09:28.272Z,19.50
2022-08-29T23:12:03.882Z,19.50
2022-08-29T23:14:35.738Z,19.50
2022-08-29T23:17:07.796Z,19.50
2022-08-29T23:19:36.504Z,19.50
2022-08-29T23:22:06.434Z,19.50
2022-08-29T23:24:33.805Z,19.50
2022-08-29T23:27:01.331Z,19.40
2022-08-29T23:29:30.859Z,19.40
2022-08-29T23:31:58.110Z,19.40
2022-08-29T23:34:25.028Z,19.40
2022-08-29T23:36:52.388Z,19.40
2022-08-29T23:39:19.454Z,19.40
2022-08-29T23:41:46.373Z,19.40
2022-08-29T23:44:13.543Z,19.40
2022-08-29T23:46:40.482Z,19.40
2022-08-29T23:49:07.730Z,19.40
2022-08-29T23:51:35.880Z,19.30
2022-08-29T23:54:02.955Z,19.30
2022-08-29T23:56:29.829Z,19.30
2022-08-29T23:58:57.949Z,19.30
